Pagrindinis puslapis
METAR-TAF:

METAR-TAF

Oro uostai :

Puerto Fransisko de Oreljana, Ekvadoras

platuma: 00-27-46S, ilguma: 076-59-12W, Aukštis: 254 m

Dabartinis oras

Ataskaita buvo paskelbta 5 valandos ir 16 minutes, ne 22:00 UTC
Vėjas 4 kt iš Pietų/Pietryčių
Temperatūra 27°C
Drėgmė 79%
Slėgis 1008 hPa
Matomumas 10 km arba daugiau
Išsisklaidę debesys ne aukštis 2600 ft
Išsisklaidę debesys ne aukštis 10000 ft

METAR: SECO 212200Z 16004KT 9999 SCT026 SCT100 27/23 Q1008 RMK A2979

Laikas: 22:16 (03:16 UTC)


TAF: trūkstamas

Orai ataskaitas ir orų prognozės (METAR, TAF).

turimą stotys yra geltonos ir raudonos taškus žemėlapyje.

Perkelti pele per norėdami pamatyti stoties vardą.

Tada spustelėkite, norėdami matyti oro stebėjimo ir prognozės.

Norėdami pakeisti žemėlapį: spustelėkite ant žalios mygtukų su juodo kryžiaus žemyn,; žalią mygtuką su brūkšneliu, jei norite nutolinti; arba žalių rodyklių gretimoms žemėlapius.


METAR-TAF: